Utah Valley Invitational :: 1FORTHALL

liberation: 2021-04-10  07:30     latitude: 43.143667     longitude: -112.396850 227 birds
# LOFT PRING MILES ARRIVAL SPEED ToWin
1 Smith Loft AU20-ARPU-54508 193.295 2021-04-10 11:35:01.008 1388.473 00:00:00
2 Smith Loft AU20-SMIT-5065 193.295 2021-04-10 11:35:21.592 1386.531 00:00:21
3 Smith Loft AU19-ARPU-41761 193.295 2021-04-10 11:35:25.086 1386.202 00:00:24
4 Smith Loft 2 AU20-SMIT-5060 193.295 2021-04-10 11:35:26.520 1386.067 00:00:26
5 Smith Loft 2 AU20-SMIT-5091 193.295 2021-04-10 11:35:32.913 1385.465 00:00:32
6 Smith Loft 2 AU20-SMIT-5095 193.295 2021-04-10 11:35:41.971 1384.614 00:00:41
7 Smith Loft AU20-SMIT-5043 193.295 2021-04-10 11:36:07.860 1382.187 00:01:07
8 Smith Loft AU19-SMIT-4592 193.295 2021-04-10 11:37:31.524 1374.401 00:02:31
9 Smith Loft 2 AU19-SMIT-4504 193.295 2021-04-10 11:37:51.585 1372.546 00:02:51
10 Smith Loft 2 AU20-SMIT-5098 193.295 2021-04-10 11:37:56.157 1372.124 00:02:55
11 Whiteley Loft AU20-UVI-0434 196.759 2021-04-10 11:42:34.780 1371.033 00:03:10
12 Smith Loft AU19-ARPU-84205 193.295 2021-04-10 11:38:44.376 1367.692 00:03:43
13 Whiteley Loft AU20-UVI-1176 196.759 2021-04-10 11:43:16.946 1367.229 00:03:53
14 High west loft AU20-UVI-0669 195.809 2021-04-10 11:42:27.836 1365.045 00:04:16
15 Whiteley Loft AU19-UVI-1049 196.759 2021-04-10 11:43:41.269 1365.044 00:04:17
16 High west loft AU19-UVI-0284 195.809 2021-04-10 11:42:28.239 1365.008 00:04:16
17 Whiteley Loft AU18-NRPL-8099 196.759 2021-04-10 11:43:45.415 1364.672 00:04:21
18 Lone Peak Loft AU20-UVI-0223 191.363 2021-04-10 11:37:07.176 1362.898 00:04:33
19 High west loft AU20-UVI-0658 195.809 2021-04-10 11:43:19.800 1360.378 00:05:08
20 Smith Loft 2 AU19-ARPU-83898 193.295 2021-04-10 11:40:06.512 1360.205 00:05:06
21 Smith Loft 2 AU19-SMIT-4541 193.295 2021-04-10 11:40:11.012 1359.798 00:05:10
22 Whiteley Loft AU19-UVI-1091 196.759 2021-04-10 11:44:57.945 1358.202 00:05:34
23 Lone Peak Loft AU19-UVI-0541 191.363 2021-04-10 11:38:35.498 1354.828 00:06:01
24 M2 Loft AU20-JEDD-43027 200.289 2021-04-10 11:50:32.073 1353.019 00:06:39
25 High west loft AU20-UVI-0634 195.809 2021-04-10 11:45:23.276 1349.416 00:07:11
26 Lone Peak Loft AU20-UVI-0240 191.363 2021-04-10 11:40:08.629 1346.421 00:07:35
27 Lone Peak Loft AU20-UVI-0218 191.363 2021-04-10 11:40:11.238 1346.187 00:07:37
28 Smith Loft 2 AU19-ARPU-84218 193.295 2021-04-10 11:43:00.016 1344.659 00:07:59
29 Smith Loft 2 AU20-SMIT-5093 193.295 2021-04-10 11:43:03.462 1344.353 00:08:02
30 Smith Loft AU20-SMIT-5087 193.295 2021-04-10 11:43:04.940 1344.223 00:08:04
31 Smith Loft 2 AU20-SMIT-5044 193.295 2021-04-10 11:43:12.076 1343.591 00:08:11
32 dgf loft AU19-UVI-0936 200.275 2021-04-10 11:52:24.232 1343.287 00:08:32
33 Whiteley Loft AU19-UVI-1006 196.759 2021-04-10 11:47:55.237 1342.642 00:08:31
34 Whiteley Loft AU20-UVI-1199 196.759 2021-04-10 11:48:39.979 1338.771 00:09:16
35 Lone Peak Loft AU20-UVI-0233 191.363 2021-04-10 11:42:38.043 1333.149 00:10:04
36 Lone Peak Loft AU20-UVI-0253 191.363 2021-04-10 11:42:39.545 1333.017 00:10:05
37 M2 Loft AU20-UVI-0736 200.289 2021-04-10 11:54:53.280 1330.782 00:11:00
38 Smith Loft AU20-JEDD-39747 193.295 2021-04-10 11:45:56.439 1329.211 00:10:55
39 Heidenreich Loft AU15-UVI-0869 192.192 2021-04-10 11:44:35.206 1328.656 00:10:58
40 Heidenreich Loft AU17-UVI-1002 192.192 2021-04-10 11:44:57.791 1326.694 00:11:21
41 Smith Loft AU20-JEDD-39744 193.295 2021-04-10 11:46:33.089 1326.046 00:11:32
42 Smith Loft 2 AU20-SMIT-5019 193.295 2021-04-10 11:46:37.599 1325.657 00:11:37
43 Smith Loft 2 AU20-JEDD-39745 193.295 2021-04-10 11:46:44.070 1325.100 00:11:43
44 Smith Loft 2 AU20-SMIT-5100 193.295 2021-04-10 11:46:46.149 1324.922 00:11:45
45 Smith Loft AU20-SMIT-5042 193.295 2021-04-10 11:46:46.498 1324.892 00:11:45
46 Smith Loft AU20-ARPU-54513 193.295 2021-04-10 11:46:49.762 1324.611 00:11:49
47 Lone Peak Loft AU17-UVI-0346 191.363 2021-04-10 11:44:24.889 1323.818 00:11:51
48 Smith Loft AU19-ARPU-83884 193.295 2021-04-10 11:47:08.494 1323.003 00:12:07
49 Smith Loft 2 AU20-SMIT-5013 193.295 2021-04-10 11:47:43.753 1319.986 00:12:43
50 M2 Loft AU20-UVI-0749 200.289 2021-04-10 11:57:05.101 1319.835 00:13:12
51 Smith Loft 2 AU20-SMIT-5014 193.295 2021-04-10 11:47:48.435 1319.587 00:12:47
52 M2 Loft AU19-UVI-0064 200.289 2021-04-10 11:57:08.533 1319.552 00:13:16
53 M2 Loft AU20-UVI-0794 200.289 2021-04-10 11:57:10.075 1319.426 00:13:17
54 Lone Peak Loft AU19-UVI-0548 191.363 2021-04-10 11:45:26.087 1318.532 00:12:52
55 Smith Loft AU20-ARPU-54506 193.295 2021-04-10 11:48:06.738 1318.028 00:13:06
56 Smith Loft AU20-SMIT-5057 193.295 2021-04-10 11:48:20.823 1316.830 00:13:20
57 M2 Loft AU17-UVI-0106 200.289 2021-04-10 11:57:46.745 1316.414 00:13:54
58 M2 Loft AU20-JEDDS-38341 200.289 2021-04-10 11:57:49.019 1316.228 00:13:56
59 Smith Loft 2 AU20-SMIT-5062 193.295 2021-04-10 11:48:31.248 1315.944 00:13:30
60 Smith Loft AU19-SMIT-4575 193.295 2021-04-10 11:48:38.181 1315.357 00:13:37
61 M2 Loft AU20-ARPU-65916 200.289 2021-04-10 11:58:01.791 1315.182 00:14:09
62 M2 Loft AU20-UVI-0760 200.289 2021-04-10 11:58:04.920 1314.927 00:14:12
63 Smith Loft 2 AU20-SMIT-5064 193.295 2021-04-10 11:48:50.686 1314.297 00:13:50
64 dgf loft AU20-UVI-1001 200.275 2021-04-10 11:58:21.458 1313.485 00:14:30
65 dgf loft AU20-UVI-1055 200.275 2021-04-10 11:58:23.426 1313.324 00:14:32
66 dgf loft AU18-UVI-0347 200.275 2021-04-10 11:58:25.520 1313.153 00:14:34
67 M2 Loft AU20-UVI-0790 200.289 2021-04-10 11:58:30.163 1312.866 00:14:37
68 Lone Peak Loft AU19-UVI-0560 191.363 2021-04-10 11:46:32.631 1312.832 00:13:59
69 Smith Loft AU20-SMIT-5061 193.295 2021-04-10 11:49:13.488 1312.371 00:14:12
70 Whiteley Loft AU20-UVI-1169 196.759 2021-04-10 11:53:52.253 1312.366 00:14:28
71 Whiteley Loft AU18-UVI-0799 196.759 2021-04-10 11:53:53.515 1312.261 00:14:29
72 M2 Loft AU20-UVI-0738 200.289 2021-04-10 11:58:39.733 1312.087 00:14:47
73 Whiteley Loft AU20-UVI-1179 196.759 2021-04-10 11:53:59.710 1311.748 00:14:35
74 Smith Loft 2 AU19-SMIT-4593 193.295 2021-04-10 11:49:30.714 1310.919 00:14:30
75 Smith Loft AU20-SMIT-5066 193.295 2021-04-10 11:49:38.491 1310.265 00:14:37
76 Whiteley Loft AU18-UVI-0925 196.759 2021-04-10 11:54:23.646 1309.768 00:14:59
77 High west loft AU18-UVI-0990 195.809 2021-04-10 11:53:17.407 1308.916 00:15:05
78 Heidenreich Loft AU19-UVI-0839 192.192 2021-04-10 11:48:37.722 1307.891 00:15:01
79 Lone Peak Loft AU20-UVI-0254 191.363 2021-04-10 11:47:31.003 1307.872 00:14:57
80 High west loft AU19-UVI-0451 195.809 2021-04-10 11:53:35.538 1307.415 00:15:23
81 Smith Loft 2 AU20-SMIT-5047 193.295 2021-04-10 11:50:13.270 1307.346 00:15:12
82 Whiteley Loft AU19-UVI-1095 196.759 2021-04-10 11:54:53.082 1307.343 00:15:29
83 High west loft AU20-JEDD-35894 195.809 2021-04-10 11:53:48.931 1306.309 00:15:37
84 Lone Peak Loft AU19-UVI-0536 191.363 2021-04-10 11:48:00.274 1305.399 00:15:26
85 Smith Loft 2 AU20-SMIT-5075 193.295 2021-04-10 11:50:40.181 1305.096 00:15:39
86 Smith Loft AU20-SMIT-5078 193.295 2021-04-10 11:50:54.547 1303.899 00:15:54
87 Smith Loft 2 AU19-SMIT-4535 193.295 2021-04-10 11:50:57.113 1303.685 00:15:56
88 High west loft AU20-UVI-0606 195.809 2021-04-10 11:54:22.258 1303.564 00:16:10
89 High west loft AU20-UVI-0627 195.809 2021-04-10 11:54:24.718 1303.362 00:16:12
90 Lone Peak Loft AU19-UVI-0557 191.363 2021-04-10 11:48:24.594 1303.351 00:15:51
91 Lone Peak Loft AU20-UVI-0256 191.363 2021-04-10 11:48:25.824 1303.248 00:15:52
92 Lone Peak Loft AU20-UVI-0247 191.363 2021-04-10 11:48:32.420 1302.694 00:15:58
93 Lone Peak Loft AU17-UVI-0313 191.363 2021-04-10 11:48:34.752 1302.498 00:16:01
94 Smith Loft AU20-SMIT-5097 193.295 2021-04-10 11:51:32.841 1300.717 00:16:32
95 Smith Loft 2 AU19-SMIT-4528 193.295 2021-04-10 11:51:33.350 1300.674 00:16:32
96 Whiteley Loft AU19-UVI-0754 196.759 2021-04-10 11:57:02.973 1296.745 00:17:39
97 Lone Peak Loft AU20-UVI-0251 191.363 2021-04-10 11:49:46.809 1296.477 00:17:13
98 High west loft AU20-UVI-0605 195.809 2021-04-10 11:55:55.365 1295.957 00:17:43
99 Lone Peak Loft AU20-UVI-0222 191.363 2021-04-10 11:49:54.392 1295.846 00:17:20
100 High west loft AU20-UVI-0062 195.809 2021-04-10 11:55:56.847 1295.837 00:17:45
101 Lone Peak Loft AU20-UVI-0252 191.363 2021-04-10 11:49:56.775 1295.648 00:17:23
102 Lone Peak Loft AU20-UVI-0275 191.363 2021-04-10 11:49:57.846 1295.559 00:17:24
103 Lone Peak Loft AU20-UVI-0203 191.363 2021-04-10 11:50:01.006 1295.297 00:17:27
104 Smith Loft AU19-ARPU-84215 193.295 2021-04-10 11:53:14.720 1292.327 00:18:14
105 High west loft AU19-UVI-0163 195.809 2021-04-10 11:56:45.583 1291.891 00:18:33
106 Smith Loft 2 AU20-JEDD-39741 193.295 2021-04-10 11:53:25.153 1291.474 00:18:24
107 Smith Loft 2 AU20-SMIT-5034 193.295 2021-04-10 11:53:51.728 1289.306 00:18:51
108 Hickens Loft AU20-UVI-0964 196.749 2021-04-10 11:59:00.581 1287.232 00:19:37
109 Smith Loft AU20-ARPU-54504 193.295 2021-04-10 11:54:18.448 1287.134 00:19:17
110 Smith Loft AU19-ARPU-83879 193.295 2021-04-10 11:54:31.965 1286.038 00:19:31
111 M2 Loft AU20-ARPU-65917 200.289 2021-04-10 12:04:28.084 1284.332 00:20:35
112 dgf loft AU20-NEBO-501 200.275 2021-04-10 12:04:28.757 1284.190 00:20:37
113 dgf loft AU20-UVI-1088 200.275 2021-04-10 12:04:40.688 1283.260 00:20:49
114 M2 Loft AU19-UVI-0097 200.289 2021-04-10 12:04:44.303 1283.068 00:20:51
115 High west loft AU19-UVI-0409 195.809 2021-04-10 11:59:19.566 1279.581 00:21:07
116 High west loft AU20-UVI-0646 195.809 2021-04-10 11:59:20.948 1279.472 00:21:09
117 Lone Peak Loft AU19-UVI-0574 191.363 2021-04-10 11:53:31.016 1278.092 00:20:57
118 Lone Peak Loft AU20-UVI-0264 191.363 2021-04-10 11:53:31.944 1278.017 00:20:58
119 Whiteley Loft AU20-UVI-1192 196.759 2021-04-10 12:00:59.360 1277.892 00:21:35
120 M2 Loft AU20-UVI-0722 200.289 2021-04-10 12:06:37.580 1274.312 00:22:45
121 Whiteley Loft AU19-UVI-0773 196.759 2021-04-10 12:01:46.155 1274.225 00:22:22
122 Smith Loft AU20-SMIT-5067 193.295 2021-04-10 11:56:59.162 1274.221 00:21:58
123 Whiteley Loft AU19-JEDD-36560 196.759 2021-04-10 12:01:57.941 1273.304 00:22:34
124 Whiteley Loft AU19-UVI-1090 196.759 2021-04-10 12:02:13.260 1272.110 00:22:49
125 Lone Peak Loft AU19-UVI-0550 191.363 2021-04-10 11:55:10.178 1270.126 00:22:36
126 High west loft AU18-UVI-0049 195.809 2021-04-10 12:01:45.088 1268.161 00:23:33
127 High west loft AU19-JEDD-34836 195.809 2021-04-10 12:01:46.031 1268.088 00:23:34
128 dgf loft AU20-UVI-1043 200.275 2021-04-10 12:07:59.092 1267.996 00:24:07
129 High west loft AU20-UVI-0633 195.809 2021-04-10 12:01:48.919 1267.863 00:23:37
130 High west loft AU19-UVI-0428 195.809 2021-04-10 12:01:53.285 1267.524 00:23:41
131 High west loft AU20-JEDD-35899 195.809 2021-04-10 12:02:12.149 1266.060 00:24:00
132 High west loft AU19-UVI-0469 195.809 2021-04-10 12:02:46.934 1263.369 00:24:35
133 Whiteley Loft AU20-UVI-1185 196.759 2021-04-10 12:04:10.627 1263.034 00:24:46
134 Smith Loft AU20-SMIT-5030 193.295 2021-04-10 11:59:28.539 1262.448 00:24:28
135 Smith Loft AU20-ARPU-54519 193.295 2021-04-10 11:59:30.049 1262.331 00:24:29
136 Whiteley Loft AU20-UVI-1193 196.759 2021-04-10 12:04:21.698 1262.185 00:24:57
137 Smith Loft AU20-ARPU-54509 193.295 2021-04-10 11:59:37.318 1261.763 00:24:36
138 Whiteley Loft AU18-UVI-0950 196.759 2021-04-10 12:04:39.603 1260.813 00:25:15
139 M2 Loft AU17-UVI-0486 200.289 2021-04-10 12:11:18.036 1253.137 00:27:25
140 Smith Loft 2 AU20-SMIT-5009 193.295 2021-04-10 12:01:48.843 1251.587 00:26:48
141 Heidenreich Loft AU19-UVI-0801 192.192 2021-04-10 12:00:47.272 1249.163 00:27:10
142 Smith Loft AU20-ARPU-54517 193.295 2021-04-10 12:03:01.992 1245.999 00:28:01
143 Smith Loft AU20-SMIT-5063 193.295 2021-04-10 12:04:02.168 1241.439 00:29:01
144 Heidenreich Loft AU19-UVI-0848 192.192 2021-04-10 12:02:44.284 1240.231 00:29:07
145 Heidenreich Loft AU17-UVI-1047 192.192 2021-04-10 12:02:47.288 1240.003 00:29:10
146 Whiteley Loft AU19-JEDD-36550 196.759 2021-04-10 12:10:05.323 1236.376 00:30:41
147 Grandpa Paul AU20-JEDD-49929 198.727 2021-04-10 12:12:56.258 1236.174 00:31:02
148 Whiteley Loft AU20-JEDD-41732 196.759 2021-04-10 12:10:11.530 1235.920 00:30:47
149 dgf loft AU20-UVI-1062 200.275 2021-04-10 12:16:06.977 1231.959 00:32:15
150 M2 Loft AU20-JEDD-35728 200.289 2021-04-10 12:16:38.199 1229.808 00:32:45
151 Whiteley Loft AU20-UVI-1175 196.759 2021-04-10 12:12:17.999 1226.692 00:32:54
152 M2 Loft AU20-WFA-2151 200.289 2021-04-10 12:17:33.140 1225.892 00:33:40
153 M2 Loft AU20-UVI-0535 200.289 2021-04-10 12:17:38.442 1225.516 00:33:46
154 dgf loft AU19-UVI-0919 200.275 2021-04-10 12:18:06.645 1223.431 00:34:15
155 High west loft AU19-UVI-0467 195.809 2021-04-10 12:12:21.695 1220.508 00:34:09
156 High west loft AU18-UVI-0139 195.809 2021-04-10 12:12:23.140 1220.404 00:34:11
157 Smith Loft 2 AU20-SMIT-5037 193.295 2021-04-10 12:08:53.359 1219.835 00:33:52
158 Whiteley Loft AU20-UVI-1190 196.759 2021-04-10 12:15:07.823 1214.515 00:35:43
159 Hickens Loft AU20-UVI-0986 196.749 2021-04-10 12:15:09.468 1214.338 00:35:46
160 dgf loft AU20-UVI-1057 200.275 2021-04-10 12:21:07.376 1210.772 00:37:16
161 dgf loft AU20-UVI-1011 200.275 2021-04-10 12:21:14.423 1210.284 00:37:23
162 dgf loft AU20-UVI-1075 200.275 2021-04-10 12:21:18.228 1210.021 00:37:26
163 dgf loft AU17-NRPL-7129 200.275 2021-04-10 12:22:51.316 1203.610 00:38:59
164 High west loft AU19-UVI-0487 195.809 2021-04-10 12:16:41.222 1202.093 00:38:29
165 Whiteley Loft AU20-UVI-1103 196.759 2021-04-10 12:19:09.029 1197.629 00:39:45
166 High west loft AU18-UVI-0715 195.809 2021-04-10 12:18:03.891 1196.344 00:39:52
167 Heidenreich Loft AU20-UVI-0864 192.192 2021-04-10 12:12:47.536 1196.137 00:39:10
168 dgf loft AU20-UVI-1083 200.275 2021-04-10 12:26:42.702 1187.967 00:42:51
169 Grandpa Paul AU20-UVI-0106 198.727 2021-04-10 12:24:43.099 1186.761 00:42:49
170 Lone Peak Loft AU20-UVI-0232 191.363 2021-04-10 12:14:12.337 1185.054 00:41:38
171 Heidenreich Loft AU15-UVI-0872 192.192 2021-04-10 12:16:45.606 1179.586 00:43:08
172 Heidenreich Loft AU20-UVI-0886 192.192 2021-04-10 12:17:31.089 1176.476 00:43:54
173 High west loft AU20-UVI-0652 195.809 2021-04-10 12:23:25.319 1174.502 00:45:13
174 Heidenreich Loft AU19-UVI-0849 192.192 2021-04-10 12:20:31.844 1164.277 00:46:55
175 dgf loft AU20-OGN-924 200.275 2021-04-10 12:34:39.965 1156.951 00:50:48
176 Heidenreich Loft AU19-UVI-0844 192.192 2021-04-10 12:22:45.095 1155.444 00:49:08
177 Hickens Loft AU20-UVI-0963 196.749 2021-04-10 12:30:43.436 1151.481 00:51:20
178 Heidenreich Loft AU20-UVI-0857 192.192 2021-04-10 12:28:52.650 1131.762 00:55:16
179 Grandpa Paul AU20-UVI-0102 198.727 2021-04-10 12:39:51.273 1128.788 00:57:57
180 dgf loft AU20-UVI-1019 200.275 2021-04-10 12:42:41.274 1127.270 00:58:49
181 Hickens Loft AU19-UVI-0880 196.749 2021-04-10 12:41:03.394 1113.231 01:01:40
182 Grandpa Paul AU20-JEDD-49933 198.727 2021-04-10 12:47:31.504 1101.520 01:05:37
183 dgf loft AU20-UVI-804 200.275 2021-04-10 12:54:33.412 1086.046 01:10:42
184 High west loft AU20-UVI-0672 195.809 2021-04-10 12:48:13.755 1082.944 01:10:02
185 dgf loft AU20-UVI-1041 200.275 2021-04-10 12:57:58.254 1074.740 01:14:06
186 Grandpa Paul AU20-UVI-0921 198.727 2021-04-10 12:57:02.149 1069.486 01:15:08
187 dgf loft AU20-UVI-1098 200.275 2021-04-10 13:00:55.307 1065.157 01:17:03
188 Hickens Loft AU20-UVI-0953 196.749 2021-04-10 12:57:46.304 1056.461 01:18:23
189 Lone Peak Loft AU20-UVI-0214 191.363 2021-04-10 12:50:34.684 1050.599 01:18:01
190 Grandpa Paul AU20-UVI-0178 198.727 2021-04-10 13:03:52.020 1047.603 01:21:58
191 Heidenreich Loft AU18-UVI-1127 192.192 2021-04-10 13:01:15.240 1021.144 01:27:38
192 dgf loft AU20-UVI-1097 200.275 2021-04-10 13:15:36.688 1019.884 01:31:45
193 Heidenreich Loft AU20-UVI-0889 192.192 2021-04-10 13:06:35.666 1004.943 01:32:59
194 dgf loft AU20-UVI-1090 200.275 2021-04-10 13:24:38.436 993.918 01:40:47
195 dgf loft AU20-UVI-1033 200.275 2021-04-10 13:32:43.684 971.757 01:48:52
196 Hickens Loft AU20-UVI-0956 196.749 2021-04-10 13:31:51.359 956.950 01:52:28
197 Hickens Loft AU18-UVI-1166 196.749 2021-04-10 13:48:09.244 915.706 02:08:46
198 M2 Loft AU20-JEDD-43033 200.289 2021-04-10 14:35:35.604 828.275 02:51:43
199 Hickens Loft AU20-UVI-0958 196.749 2021-04-10 14:46:23.414 793.505 03:07:00
200 Heidenreich Loft AU15-UVI-0809 192.192 2021-04-10 14:38:47.630 788.860 03:05:10
201 Hickens Loft AU20-UVI-0971 196.749 2021-04-10 14:49:35.517 787.726 03:10:12
202 Hickens Loft AU20-UVI-0968 196.749 2021-04-10 14:59:52.588 769.718 03:20:29
203 Heidenreich Loft AU18-UVI-1150 192.192 2021-04-10 15:22:07.302 716.464 03:48:30
204 Whiteley Loft AU20-UVI-1101 196.759 2021-04-10 16:01:50.082 676.576 04:22:26
205 Heidenreich Loft AU20-UVI-0888 192.192 2021-04-10 16:23:58.790 633.466 04:50:22
206 Hickens Loft AU20-UVI-0987 196.749 2021-04-10 17:22:42.029 584.238 05:43:18
207 Grandpa Paul AU20-UVI-0944 198.727 2021-04-10 18:12:32.020 544.345 06:30:38
dgf loft AU19-UVI-0937 0 0000-00-00 00:00:00.000 0.000 00:00:00
dgf loft AU20-UVI-1031 0 0000-00-00 00:00:00.000 0.000 00:00:00
Grandpa Paul AU20-JEDD-46705 0 0000-00-00 00:00:00.000 0.000 00:00:00
Grandpa Paul AU20-JEDD-49924 0 0000-00-00 00:00:00.000 0.000 00:00:00
Grandpa Paul AU20-UVI-0105 0 0000-00-00 00:00:00.000 0.000 00:00:00
Heidenreich Loft AU20-UVI-0852 0 0000-00-00 00:00:00.000 0.000 00:00:00
Hickens Loft AU20-JEDD-4311 0 0000-00-00 00:00:00.000 0.000 00:00:00
Hickens Loft AU20-UVI-0976 0 0000-00-00 00:00:00.000 0.000 00:00:00
High west loft AU20-UVI-0644 0 0000-00-00 00:00:00.000 0.000 00:00:00
Lone Peak Loft AU20-UVI-0258 0 0000-00-00 00:00:00.000 0.000 00:00:00
M2 Loft AU20-AA-13348 0 0000-00-00 00:00:00.000 0.000 00:00:00
Smith Loft AU19-ARPU-83899 0 0000-00-00 00:00:00.000 0.000 00:00:00
Smith Loft 2 AU19-SMIT-4586 0 0000-00-00 00:00:00.000 0.000 00:00:00
Smith Loft 2 AU20-ARPU-54505 0 0000-00-00 00:00:00.000 0.000 00:00:00
Smith Loft 2 AU20-ARPU-54507 0 0000-00-00 00:00:00.000 0.000 00:00:00
Smith Loft 2 AU20-ARPU-54521 0 0000-00-00 00:00:00.000 0.000 00:00:00
Whiteley Loft AU20-UVI-0472 0 0000-00-00 00:00:00.000 0.000 00:00:00
Whiteley Loft AU20-UVI-1126 0 0000-00-00 00:00:00.000 0.000 00:00:00
Whiteley Loft AU20-UVI-1166 0 0000-00-00 00:00:00.000 0.000 00:00:00
Whiteley Loft AU20-UVI-1184 0 0000-00-00 00:00:00.000 0.000 00:00:00